Time;durP1;ratioP1;P1;durP2;ratioP2;P2;SDS_P1;SDS_P2;PMS_P1;PMS_P2;Temp;Humidity;BMP_temperature;BMP_pressure;BME280_temperature;BME280_humidity;BME280_pressure;Samples;Min_cycle;Max_cycle;Signal;HPM_P1;HPM_P2
2023/01/29 00:00:08;;;;;;;6.93;3.70;;;;;;;-0.73;100.00;99908.16;5047308;28;20047;-76
2023/01/29 00:02:34;;;;;;;5.63;3.25;;;;;;;-0.81;100.00;99886.53;5046005;28;20405;-75
2023/01/29 00:05:00;;;;;;;5.72;3.63;;;;;;;-0.50;100.00;99933.16;5051753;28;20039;-75
2023/01/29 00:07:25;;;;;;;4.13;3.17;;;;;;;-0.55;100.00;99919.31;5050019;28;20060;-76
2023/01/29 00:09:50;;;;;;;5.82;3.30;;;;;;;-0.52;100.00;99919.97;5065891;28;20029;-75
2023/01/29 00:12:16;;;;;;;8.15;3.45;;;;;;;-0.54;100.00;99913.06;5050292;28;20064;-75
2023/01/29 00:14:41;;;;;;;8.00;3.85;;;;;;;-0.61;100.00;99903.81;5042998;28;20467;-77
2023/01/29 00:17:06;;;;;;;10.15;3.42;;;;;;;-0.62;100.00;99912.75;5057558;28;20067;-76
2023/01/29 00:19:32;;;;;;;7.57;3.75;;;;;;;-0.71;100.00;99901.78;5069039;28;20043;-76
2023/01/29 00:21:57;;;;;;;9.85;4.00;;;;;;;-0.62;100.00;99902.13;5039549;28;20887;-75
2023/01/29 00:24:22;;;;;;;8.02;3.38;;;;;;;-0.62;100.00;99918.91;5040948;28;20083;-75
2023/01/29 00:26:49;;;;;;;7.68;3.88;;;;;;;-0.65;100.00;99918.28;5041847;28;20025;-76
2023/01/29 00:29:14;;;;;;;4.97;3.40;;;;;;;-0.94;100.00;99882.09;5038861;28;20040;-76
2023/01/29 00:31:43;;;;;;;8.93;4.15;;;;;;;-0.72;100.00;99921.31;5049325;28;20037;-76
2023/01/29 00:34:08;;;;;;;6.35;3.42;;;;;;;-0.82;100.00;99912.28;5046220;28;20056;-76
2023/01/29 00:36:33;;;;;;;7.18;4.10;;;;;;;-0.80;100.00;99905.06;5055140;28;20033;-75
2023/01/29 00:39:01;;;;;;;6.13;3.90;;;;;;;-0.76;100.00;99922.50;5070292;28;20115;-75
2023/01/29 00:46:56;;;;;;;7.05;3.72;;;;;;;-0.96;100.00;99913.22;5049478;28;20095;-76
2023/01/29 00:49:22;;;;;;;7.63;4.13;;;;;;;-1.02;100.00;99918.94;5051629;28;20425;-75
2023/01/29 00:52:22;;;;;;;7.38;4.60;;;;;;;-1.05;100.00;99910.31;5058421;28;20437;-76
2023/01/29 00:54:32;;;;;;;11.15;4.70;;;;;;;-1.19;100.00;99901.47;5044190;28;20382;-75
2023/01/29 00:56:58;;;;;;;5.85;3.65;;;;;;;-1.23;100.00;99892.00;5059482;28;20021;-75
2023/01/29 00:59:23;;;;;;;6.85;3.50;;;;;;;-1.00;100.00;99903.72;5055272;28;20043;-74
2023/01/29 01:04:32;;;;;;;8.15;3.80;;;;;;;-0.93;100.00;99914.81;5052554;28;20028;-75
2023/01/29 01:06:57;;;;;;;5.35;3.67;;;;;;;-0.97;100.00;99905.34;5053557;28;20033;-75
2023/01/29 01:12:07;;;;;;;4.80;3.25;;;;;;;-0.83;100.00;99910.59;5035496;28;20039;-76
2023/01/29 01:14:34;;;;;;;6.65;4.07;;;;;;;-0.93;100.00;99909.50;5049340;28;20028;-75
2023/01/29 01:17:00;;;;;;;7.05;3.95;;;;;;;-1.18;100.00;99868.66;5046345;28;20025;-75
2023/01/29 01:19:25;;;;;;;6.45;3.97;;;;;;;-1.02;100.00;99895.03;5045746;28;20240;-75
2023/01/29 01:21:50;;;;;;;7.15;3.88;;;;;;;-1.01;100.00;99893.22;5072928;28;20066;-75
2023/01/29 01:24:16;;;;;;;8.88;4.25;;;;;;;-1.10;100.00;99889.41;5049203;28;20160;-75
2023/01/29 01:26:41;;;;;;;6.53;3.95;;;;;;;-1.09;100.00;99899.06;5037021;28;20036;-75
2023/01/29 01:29:06;;;;;;;6.57;3.50;;;;;;;-1.09;100.00;99895.56;5034213;28;20036;-76
2023/01/29 01:31:32;;;;;;;6.30;3.20;;;;;;;-1.02;100.00;99910.97;5036013;28;20036;-75
2023/01/29 01:33:57;;;;;;;7.30;4.15;;;;;;;-1.11;100.00;99909.75;5042178;28;20036;-75
2023/01/29 01:36:23;;;;;;;6.22;3.53;;;;;;;-1.05;100.00;99903.19;5045681;28;20056;-75
2023/01/29 01:38:48;;;;;;;6.65;3.78;;;;;;;-1.07;100.00;99899.81;5051761;28;20037;-75
2023/01/29 01:41:17;;;;;;;8.40;4.10;;;;;;;-0.94;100.00;99921.09;5032869;28;20033;-75
2023/01/29 01:43:57;;;;;;;6.93;4.22;;;;;;;-1.05;100.00;99897.88;5044662;28;20047;-76
2023/01/29 01:46:27;;;;;;;7.32;3.97;;;;;;;-0.96;100.00;99915.03;5064712;22;20082;-58
2023/01/29 01:49:15;;;;;;;7.80;4.47;;;;;;;-0.93;100.00;99917.47;5038459;28;20498;-60
2023/01/29 01:51:45;;;;;;;7.60;3.88;;;;;;;-0.97;100.00;99915.94;5042371;28;20040;-60
2023/01/29 01:54:19;;;;;;;7.18;3.97;;;;;;;-1.01;100.00;99912.66;5037972;28;20021;-60
2023/01/29 01:56:54;;;;;;;6.80;4.50;;;;;;;-1.01;100.00;99906.50;5038079;28;20111;-60
2023/01/29 01:59:21;;;;;;;6.13;3.90;;;;;;;-1.06;100.00;99920.09;5038757;28;20021;-60
2023/01/29 02:01:52;;;;;;;6.63;3.55;;;;;;;-1.11;100.00;99909.75;5039901;28;20082;-60
2023/01/29 02:10:06;;;;;;;8.57;4.55;;;;;;;-1.12;100.00;99913.38;5058108;28;20044;-58
2023/01/29 02:12:31;;;;;;;6.15;3.78;;;;;;;-1.09;100.00;99924.75;5041111;28;20480;-58
2023/01/29 02:14:58;;;;;;;6.00;3.92;;;;;;;-1.14;100.00;99920.59;5047683;28;20035;-58
2023/01/29 02:17:24;;;;;;;11.65;4.05;;;;;;;-1.14;100.00;99909.13;5051406;28;20361;-58
2023/01/29 02:19:55;;;;;;;6.28;4.03;;;;;;;-1.19;100.00;99924.50;5046108;28;20036;-58
2023/01/29 02:22:28;;;;;;;7.65;3.58;;;;;;;-1.15;100.00;99934.00;5042279;28;20016;-58
2023/01/29 02:25:12;;;;;;;6.30;4.05;;;;;;;-1.23;100.00;99929.19;5045812;28;20121;-58
2023/01/29 02:27:47;;;;;;;7.40;4.35;;;;;;;-1.23;100.00;99918.56;5048996;28;20471;-58
2023/01/29 02:30:21;;;;;;;7.43;4.03;;;;;;;-1.27;100.00;99919.69;5050828;28;20051;-60
2023/01/29 02:32:58;;;;;;;5.80;3.85;;;;;;;-1.24;100.00;99922.16;5047352;28;20024;-58
2023/01/29 02:35:33;;;;;;;7.05;4.07;;;;;;;-1.28;100.00;99928.63;5060475;28;20063;-58
2023/01/29 02:38:26;;;;;;;7.88;4.47;;;;;;;-1.29;100.00;99920.75;5047301;28;20040;-58
2023/01/29 02:40:57;;;;;;;8.38;4.07;;;;;;;-1.38;100.00;99925.72;5069546;28;20505;-58
2023/01/29 02:43:28;;;;;;;6.50;3.85;;;;;;;-1.47;100.00;99915.69;5045375;28;20021;-58
2023/01/29 02:46:00;;;;;;;7.13;3.75;;;;;;;-1.54;100.00;99911.75;5057033;28;20029;-58
2023/01/29 02:48:36;;;;;;;8.02;4.22;;;;;;;-1.64;100.00;99916.78;5035431;28;20072;-59
2023/01/29 02:51:07;;;;;;;9.73;4.43;;;;;;;-1.66;100.00;99912.53;5039947;28;20107;-58
2023/01/29 02:53:40;;;;;;;7.95;4.13;;;;;;;-1.72;100.00;99907.63;5065736;28;20025;-58
2023/01/29 02:56:09;;;;;;;7.32;3.95;;;;;;;-1.66;100.00;99910.72;5056296;28;20043;-58
2023/01/29 02:59:02;;;;;;;8.75;4.47;;;;;;;-1.62;100.00;99917.53;5050955;28;20050;-58
2023/01/29 03:01:50;;;;;;;7.30;4.18;;;;;;;-1.62;100.00;99919.34;5003439;28;20120;-58
2023/01/29 03:04:21;;;;;;;8.80;3.90;;;;;;;-1.47;100.00;99918.34;5040460;28;20033;-58
2023/01/29 03:06:58;;;;;;;7.50;3.80;;;;;;;-1.49;100.00;99924.69;5057970;28;20035;-58
2023/01/29 03:09:35;;;;;;;7.25;4.32;;;;;;;-1.58;100.00;99916.38;5043466;28;20021;-58
2023/01/29 03:12:17;;;;;;;12.65;4.55;;;;;;;-1.57;100.00;99904.84;5040496;28;20041;-58
2023/01/29 03:17:38;;;;;;;6.72;4.18;;;;;;;-1.44;100.00;99917.28;5062387;28;20031;-58
2023/01/29 03:20:12;;;;;;;6.85;3.97;;;;;;;-1.50;100.00;99904.41;5044212;28;20433;-58
2023/01/29 03:22:39;;;;;;;6.88;3.92;;;;;;;-1.53;100.00;99909.94;5052123;28;20495;-58
2023/01/29 03:33:53;;;;;;;7.82;4.68;;;;;;;-1.53;100.00;99915.25;5054294;28;20028;-58
2023/01/29 03:36:26;;;;;;;6.97;4.28;;;;;;;-1.58;100.00;99907.56;5050359;28;20021;-59
2023/01/29 03:38:52;;;;;;;8.75;4.15;;;;;;;-1.59;100.00;99914.69;5037873;28;20033;-58
2023/01/29 03:41:24;;;;;;;7.28;4.32;;;;;;;-1.60;100.00;99910.34;5039605;28;20032;-58
2023/01/29 03:44:09;;;;;;;8.52;4.45;;;;;;;-1.57;100.00;99912.78;5035824;28;20021;-58
2023/01/29 03:46:55;;;;;;;6.95;4.05;;;;;;;-1.49;100.00;99908.75;5049176;28;20028;-58
2023/01/29 03:49:56;;;;;;;5.95;3.80;;;;;;;-1.49;100.00;99916.72;5047752;28;20024;-58
2023/01/29 03:52:39;;;;;;;8.30;4.20;;;;;;;-1.55;100.00;99905.59;5043467;28;20446;-59
2023/01/29 03:55:21;;;;;;;8.70;4.30;;;;;;;-1.58;100.00;99908.41;5037307;28;20477;-58
2023/01/29 03:58:07;;;;;;;9.13;4.03;;;;;;;-1.62;100.00;99911.38;5038359;28;20035;-58
2023/01/29 04:00:56;;;;;;;8.82;4.05;;;;;;;-1.69;100.00;99918.88;5047378;28;20527;-58
2023/01/29 04:03:40;;;;;;;8.13;4.35;;;;;;;-1.72;100.00;99919.06;5049982;28;20064;-59
2023/01/29 04:06:17;;;;;;;7.57;4.15;;;;;;;-1.73;100.00;99917.34;5048003;28;20059;-58
2023/01/29 04:09:20;;;;;;;8.48;4.65;;;;;;;-1.77;100.00;99919.34;5043496;28;20036;-58
2023/01/29 04:11:56;;;;;;;8.30;4.60;;;;;;;-1.82;100.00;99923.25;5049055;28;20035;-58
2023/01/29 04:14:22;;;;;;;7.15;4.03;;;;;;;-1.88;100.00;99919.19;5043372;28;20027;-58
2023/01/29 04:16:51;;;;;;;7.63;4.05;;;;;;;-1.93;100.00;99923.09;5039568;28;20021;-59
2023/01/29 04:19:16;;;;;;;6.70;4.38;;;;;;;-1.97;100.00;99927.72;5043687;28;20578;-58
2023/01/29 04:21:43;;;;;;;7.35;3.97;;;;;;;-2.06;100.00;99931.81;5053442;28;20111;-58
2023/01/29 04:24:11;;;;;;;12.68;4.70;;;;;;;-2.05;100.00;99930.00;5043441;28;20423;-58
2023/01/29 04:26:54;;;;;;;8.45;5.10;;;;;;;-2.09;100.00;99924.06;5044541;28;20020;-58
2023/01/29 04:30:10;;;;;;;7.05;4.00;;;;;;;-2.07;100.00;99932.75;5066782;28;20047;-58
2023/01/29 04:32:56;;;;;;;8.55;4.25;;;;;;;-2.05;100.00;99930.84;5016144;28;20524;-58
2023/01/29 04:35:42;;;;;;;8.30;4.82;;;;;;;-2.01;100.00;99940.31;5046884;28;20387;-58
2023/01/29 04:38:17;;;;;;;7.90;4.30;;;;;;;-1.98;100.00;99940.13;5040833;28;20378;-58
2023/01/29 04:40:49;;;;;;;11.88;5.05;;;;;;;-1.91;100.00;99942.38;5034576;28;20468;-58
2023/01/29 04:43:25;;;;;;;8.98;4.18;;;;;;;-1.87;100.00;99936.81;5047099;28;20047;-58
2023/01/29 04:46:10;;;;;;;8.73;4.28;;;;;;;-1.85;100.00;99936.72;5065144;28;20036;-59
2023/01/29 04:48:44;;;;;;;7.20;4.20;;;;;;;-1.83;100.00;99934.84;5044974;28;20032;-58
2023/01/29 04:51:30;;;;;;;7.72;4.13;;;;;;;-1.71;100.00;99944.66;5051592;28;20106;-58
2023/01/29 04:54:09;;;;;;;7.68;4.13;;;;;;;-1.57;100.00;99944.63;5042837;28;20089;-58
2023/01/29 04:56:43;;;;;;;7.15;4.32;;;;;;;-1.48;100.00;99934.38;5043271;28;20024;-58
2023/01/29 04:59:16;;;;;;;8.38;4.40;;;;;;;-1.45;100.00;99935.00;5040987;28;20115;-60
2023/01/29 05:01:43;;;;;;;7.95;4.10;;;;;;;-1.50;100.00;99928.31;5041319;28;20472;-58
2023/01/29 05:04:12;;;;;;;8.02;4.07;;;;;;;-1.51;100.00;99924.81;5045129;28;20024;-58
2023/01/29 05:06:39;;;;;;;7.20;4.55;;;;;;;-1.62;100.00;99920.19;5064171;28;20040;-58
2023/01/29 05:09:05;;;;;;;8.18;4.65;;;;;;;-1.66;100.00;99923.97;5046969;28;20123;-58
2023/01/29 05:11:32;;;;;;;8.05;4.63;;;;;;;-1.72;100.00;99920.88;5063913;22;20041;-58
2023/01/29 05:14:00;;;;;;;8.32;4.43;;;;;;;-1.57;100.00;99931.38;5061326;28;20490;-58
2023/01/29 05:16:40;;;;;;;11.70;4.35;;;;;;;-1.52;100.00;99919.59;5057723;28;20025;-58
2023/01/29 05:19:13;;;;;;;8.45;4.45;;;;;;;-1.53;100.00;99936.47;5046002;28;20085;-58
2023/01/29 05:21:41;;;;;;;7.30;4.75;;;;;;;-1.51;100.00;99948.69;5058929;28;20024;-58
2023/01/29 05:24:10;;;;;;;9.07;4.57;;;;;;;-1.53;100.00;99939.13;5055947;28;20024;-58
2023/01/29 05:29:20;;;;;;;6.63;4.28;;;;;;;-1.60;100.00;99942.19;5054648;28;20043;-58
2023/01/29 05:31:46;;;;;;;8.27;4.45;;;;;;;-1.65;100.00;99938.09;5071653;28;20111;-58
2023/01/29 05:34:11;;;;;;;7.90;4.47;;;;;;;-1.73;100.00;99933.28;5062489;28;20029;-58
2023/01/29 05:36:36;;;;;;;7.50;4.65;;;;;;;-1.70;100.00;99934.88;5053240;28;20074;-58
2023/01/29 05:39:02;;;;;;;8.38;4.53;;;;;;;-1.62;100.00;99916.69;5055564;28;20025;-58
2023/01/29 05:41:27;;;;;;;8.80;4.97;;;;;;;-1.71;100.00;99907.50;5062570;28;20028;-58
2023/01/29 05:43:53;;;;;;;8.57;4.72;;;;;;;-1.80;100.00;99889.53;5060353;28;20021;-58
2023/01/29 05:46:19;;;;;;;7.95;5.03;;;;;;;-1.87;100.00;99880.25;5057562;28;20063;-59
2023/01/29 05:48:45;;;;;;;7.70;4.35;;;;;;;-1.90;100.00;99886.63;5046160;28;20357;-58
2023/01/29 05:51:10;;;;;;;9.05;4.65;;;;;;;-1.91;100.00;99897.31;5057935;28;20062;-61
2023/01/29 05:53:35;;;;;;;11.63;4.85;;;;;;;-1.87;100.00;99898.81;5061776;28;20030;-58
2023/01/29 05:56:03;;;;;;;10.73;5.15;;;;;;;-1.84;100.00;99912.72;5060536;28;20056;-58
2023/01/29 05:58:32;;;;;;;8.98;4.85;;;;;;;-1.79;100.00;99912.44;5048439;28;20027;-58
2023/01/29 06:01:09;;;;;;;12.25;4.68;;;;;;;-1.81;100.00;99901.97;5059426;28;20379;-58
2023/01/29 06:03:35;;;;;;;12.20;4.90;;;;;;;-1.66;100.00;99910.72;5059015;28;20365;-58
2023/01/29 06:06:01;;;;;;;8.63;4.38;;;;;;;-1.67;100.00;99903.72;5063352;28;20044;-58
2023/01/29 06:08:26;;;;;;;7.60;4.00;;;;;;;-1.66;100.00;99905.41;5048211;28;20528;-58
2023/01/29 06:10:51;;;;;;;8.90;4.90;;;;;;;-1.64;100.00;99895.56;5045529;28;20176;-58
2023/01/29 06:13:17;;;;;;;7.07;4.15;;;;;;;-1.60;100.00;99904.16;5053947;28;20027;-58
2023/01/29 06:15:42;;;;;;;8.77;4.70;;;;;;;-1.67;100.00;99911.69;5062981;28;20385;-58
2023/01/29 06:18:07;;;;;;;8.82;4.55;;;;;;;-1.73;100.00;99898.78;5059286;28;20025;-58
2023/01/29 06:20:33;;;;;;;8.45;4.82;;;;;;;-1.80;100.00;99903.66;5063557;28;20111;-58
2023/01/29 06:22:58;;;;;;;9.88;4.57;;;;;;;-1.83;100.00;99898.53;5056053;28;20131;-59
2023/01/29 06:25:24;;;;;;;9.43;4.32;;;;;;;-1.96;100.00;99907.38;5045856;28;20096;-58
2023/01/29 06:27:50;;;;;;;8.55;4.60;;;;;;;-2.04;100.00;99910.50;5059822;28;20051;-58
2023/01/29 06:30:15;;;;;;;8.50;4.82;;;;;;;-2.06;100.00;99915.91;5046859;28;20487;-58
2023/01/29 06:32:41;;;;;;;10.93;5.43;;;;;;;-2.11;100.00;99915.34;5036428;28;20028;-58
2023/01/29 06:35:08;;;;;;;8.35;4.65;;;;;;;-2.17;100.00;99905.13;5048216;28;20020;-58
2023/01/29 06:37:34;;;;;;;8.50;4.65;;;;;;;-2.21;100.00;99911.53;5053943;28;20032;-58
2023/01/29 06:39:59;;;;;;;8.27;4.75;;;;;;;-2.23;100.00;99916.09;5060968;28;20029;-58
2023/01/29 06:42:26;;;;;;;10.90;6.05;;;;;;;-2.24;100.00;99914.38;5073887;28;20373;-58
2023/01/29 06:44:55;;;;;;;11.55;5.13;;;;;;;-2.19;100.00;99911.47;5054987;28;20024;-58
2023/01/29 06:47:22;;;;;;;8.98;4.97;;;;;;;-2.07;100.00;99915.97;5059604;28;20071;-58
2023/01/29 06:49:48;;;;;;;8.68;4.32;;;;;;;-2.11;100.00;99914.47;5066150;28;20066;-58
2023/01/29 06:52:13;;;;;;;9.63;4.75;;;;;;;-2.15;100.00;99916.44;5064720;28;20488;-58
2023/01/29 06:54:38;;;;;;;7.70;4.32;;;;;;;-2.15;100.00;99929.72;5049582;28;20282;-58
2023/01/29 06:57:04;;;;;;;8.25;4.35;;;;;;;-2.13;100.00;99925.16;5064210;28;20056;-58
2023/01/29 06:59:29;;;;;;;9.27;4.15;;;;;;;-2.08;100.00;99922.25;5072853;28;20472;-59
2023/01/29 07:01:55;;;;;;;8.93;4.40;;;;;;;-2.09;100.00;99932.00;5059844;28;20430;-58
2023/01/29 07:04:20;;;;;;;11.15;4.90;;;;;;;-2.05;100.00;99930.84;5045002;28;20044;-58
2023/01/29 07:06:45;;;;;;;15.68;5.45;;;;;;;-2.06;100.00;99926.50;5064844;28;20060;-58
2023/01/29 07:09:12;;;;;;;8.15;4.28;;;;;;;-1.95;100.00;99932.94;5049144;28;20418;-59
2023/01/29 07:11:38;;;;;;;12.20;5.07;;;;;;;-1.98;100.00;99929.53;5048410;28;20024;-58
2023/01/29 07:14:04;;;;;;;8.73;4.53;;;;;;;-1.93;100.00;99936.34;5052802;28;20036;-67
2023/01/29 07:16:30;;;;;;;8.35;4.78;;;;;;;-1.90;100.00;99939.66;5067834;28;20021;-59
2023/01/29 07:18:55;;;;;;;14.23;5.28;;;;;;;-1.81;100.00;99938.22;5061014;28;20021;-64
2023/01/29 07:21:21;;;;;;;10.07;5.10;;;;;;;-1.73;100.00;99941.22;5043370;28;20029;-58
2023/01/29 07:23:46;;;;;;;11.02;5.07;;;;;;;-1.60;100.00;99954.56;5045025;28;20084;-58
2023/01/29 07:26:11;;;;;;;8.23;4.53;;;;;;;-1.49;100.00;99948.56;5052129;28;20531;-58
2023/01/29 07:28:38;;;;;;;11.93;4.90;;;;;;;-1.45;100.00;99947.44;5049017;28;20059;-58
2023/01/29 07:31:04;;;;;;;10.55;5.07;;;;;;;-1.38;100.00;99951.41;5069207;28;20024;-58
2023/01/29 07:33:30;;;;;;;11.07;5.10;;;;;;;-1.47;100.00;99941.38;5058050;28;20008;-58
2023/01/29 07:35:55;;;;;;;8.80;5.28;;;;;;;-1.46;100.00;99948.41;5048715;28;20028;-58
2023/01/29 07:38:21;;;;;;;11.18;5.30;;;;;;;-1.43;100.00;99938.44;5059228;28;20028;-59
2023/01/29 07:40:46;;;;;;;10.07;5.05;;;;;;;-1.31;100.00;99944.75;5050784;28;20032;-59
2023/01/29 07:43:12;;;;;;;9.70;4.72;;;;;;;-1.32;100.00;99943.03;5054413;28;20029;-58
2023/01/29 07:45:39;;;;;;;8.85;5.07;;;;;;;-1.34;100.00;99951.13;5049766;28;20033;-58
2023/01/29 07:48:06;;;;;;;11.98;5.68;;;;;;;-1.28;100.00;99957.84;5053199;22;20049;-61
2023/01/29 07:50:33;;;;;;;7.95;5.03;;;;;;;-1.23;100.00;99958.38;5045709;28;20029;-61
2023/01/29 07:52:59;;;;;;;10.20;5.22;;;;;;;-1.21;100.00;99953.81;5038684;28;20025;-66
2023/01/29 07:55:25;;;;;;;9.25;5.07;;;;;;;-1.19;100.00;99945.75;5016905;28;20118;-67
2023/01/29 07:57:57;;;;;;;8.77;5.07;;;;;;;-1.05;100.00;99950.16;5010935;28;20042;-63
2023/01/29 08:00:23;;;;;;;8.30;4.72;;;;;;;-0.90;100.00;99951.78;5013915;28;20448;-63
2023/01/29 08:02:49;;;;;;;8.68;5.85;;;;;;;-0.75;100.00;99966.72;5018341;28;20030;-63
2023/01/29 08:05:14;;;;;;;8.45;5.88;;;;;;;-0.60;100.00;99966.63;5019423;28;20025;-63
2023/01/29 08:07:41;;;;;;;11.90;5.10;;;;;;;-0.51;100.00;99956.22;5014122;28;20461;-63
2023/01/29 08:10:07;;;;;;;11.32;4.97;;;;;;;-0.46;100.00;99970.06;5012498;28;20037;-63
2023/01/29 08:12:32;;;;;;;9.35;4.78;;;;;;;-0.55;100.00;99970.69;5024165;28;20040;-62
2023/01/29 08:14:57;;;;;;;9.90;5.10;;;;;;;-0.47;100.00;99970.19;5019542;28;20052;-63
2023/01/29 08:17:23;;;;;;;8.52;4.85;;;;;;;-0.53;100.00;99971.41;5014366;28;20028;-62
2023/01/29 08:19:48;;;;;;;8.93;4.53;;;;;;;-0.17;100.00;99974.34;5007389;28;21309;-62
2023/01/29 08:22:16;;;;;;;6.55;4.57;;;;;;;0.06;100.00;99978.91;5025884;28;20026;-62
2023/01/29 08:24:44;;;;;;;9.23;4.70;;;;;;;0.18;100.00;99977.19;5014825;28;20109;-62
2023/01/29 08:27:09;;;;;;;7.07;4.38;;;;;;;0.28;100.00;99980.03;5008394;28;20033;-62
2023/01/29 08:29:36;;;;;;;7.05;4.55;;;;;;;0.36;100.00;99980.34;5010119;28;20389;-62
2023/01/29 08:32:01;;;;;;;10.38;5.35;;;;;;;0.47;100.00;99980.44;5008882;28;20045;-62
2023/01/29 08:34:26;;;;;;;8.65;4.78;;;;;;;0.28;100.00;99978.22;5013379;28;20025;-63
2023/01/29 08:36:52;;;;;;;6.18;3.95;;;;;;;0.40;100.00;99977.38;5016795;28;20031;-62
2023/01/29 08:39:18;;;;;;;8.90;4.55;;;;;;;0.85;100.00;99971.47;5014860;28;20068;-62
2023/01/29 08:41:44;;;;;;;9.88;4.47;;;;;;;0.81;100.00;99975.31;5016454;28;20115;-62
2023/01/29 08:44:09;;;;;;;7.72;4.68;;;;;;;1.05;100.00;99968.19;5010247;28;20057;-62
2023/01/29 08:46:35;;;;;;;10.27;4.93;;;;;;;1.06;100.00;99967.22;5017832;28;20116;-62
2023/01/29 08:49:01;;;;;;;13.73;5.28;;;;;;;0.82;100.00;99966.38;5012514;28;20528;-62
2023/01/29 08:51:26;;;;;;;7.28;5.20;;;;;;;0.98;100.00;99974.09;5014673;28;20060;-62
2023/01/29 08:53:52;;;;;;;8.35;5.32;;;;;;;1.13;100.00;99964.97;5016964;28;20044;-62
2023/01/29 08:56:17;;;;;;;8.70;5.28;;;;;;;1.09;100.00;99969.66;5027380;28;20187;-62
2023/01/29 08:58:43;;;;;;;10.18;4.90;;;;;;;1.47;100.00;99967.75;5009385;28;20124;-62
2023/01/29 09:01:10;;;;;;;8.73;5.03;;;;;;;1.75;100.00;99971.81;5029417;28;20325;-63
2023/01/29 09:03:36;;;;;;;8.52;4.43;;;;;;;2.22;100.00;99975.25;5034811;28;20021;-63
2023/01/29 09:06:02;;;;;;;7.85;4.85;;;;;;;2.29;100.00;99980.97;5018621;28;20551;-63
2023/01/29 09:08:27;;;;;;;8.98;5.07;;;;;;;2.07;100.00;99984.47;5020784;28;20079;-63
2023/01/29 09:10:53;;;;;;;8.77;4.80;;;;;;;2.19;100.00;99983.50;5012616;28;20041;-63
2023/01/29 09:13:18;;;;;;;8.85;4.78;;;;;;;2.28;100.00;99973.91;5025921;28;20021;-63
2023/01/29 09:15:44;;;;;;;9.05;4.93;;;;;;;2.45;100.00;99981.44;5021214;28;20392;-62
2023/01/29 09:18:09;;;;;;;9.18;5.00;;;;;;;2.71;100.00;99973.16;5030285;28;20025;-62
2023/01/29 09:20:37;;;;;;;7.38;4.88;;;;;;;2.96;100.00;99982.69;5018380;28;20025;-62
2023/01/29 09:23:07;;;;;;;9.10;4.90;;;;;;;2.50;100.00;99986.44;5018097;28;20021;-63
2023/01/29 09:25:33;;;;;;;8.05;5.00;;;;;;;2.72;100.00;99999.75;5014251;28;20029;-63
2023/01/29 09:27:58;;;;;;;7.38;5.22;;;;;;;3.26;100.00;99996.22;5008650;28;20021;-63
2023/01/29 09:30:24;;;;;;;9.20;5.20;;;;;;;3.87;100.00;99982.16;5022218;28;20024;-64
2023/01/29 09:32:49;;;;;;;7.43;4.40;;;;;;;4.45;100.00;99981.59;5044408;28;20029;-66
2023/01/29 09:35:15;;;;;;;7.85;4.50;;;;;;;5.30;100.00;99964.16;5021073;28;20028;-63
2023/01/29 09:37:40;;;;;;;6.15;4.45;;;;;;;6.00;95.39;99962.13;5019696;28;20025;-63
2023/01/29 09:40:07;;;;;;;9.45;4.45;;;;;;;6.39;82.53;99950.38;5025589;28;20033;-63
2023/01/29 09:42:50;;;;;;;8.27;4.60;;;;;;;8.08;72.38;99943.25;5022526;28;20096;-63
2023/01/29 09:45:26;;;;;;;6.05;4.38;;;;;;;9.53;64.08;99933.25;5015317;28;20061;-63
2023/01/29 09:47:54;;;;;;;9.57;5.40;;;;;;;8.47;62.95;99941.97;5014271;28;20033;-63
2023/01/29 09:50:51;;;;;;;8.68;5.72;;;;;;;7.49;65.67;99934.06;5017678;28;20124;-63
2023/01/29 09:53:39;;;;;;;8.55;5.25;;;;;;;7.58;66.39;99926.91;5009667;28;20138;-63
2023/01/29 09:56:22;;;;;;;10.82;5.20;;;;;;;7.45;63.24;99921.91;5017273;28;20033;-63
2023/01/29 09:58:48;;;;;;;11.45;6.15;;;;;;;8.04;62.96;99927.53;5034954;28;20036;-63
2023/01/29 10:01:31;;;;;;;8.18;4.70;;;;;;;8.23;61.65;99929.19;5011505;28;20025;-63
2023/01/29 10:04:31;;;;;;;6.68;4.45;;;;;;;8.67;61.43;99932.63;5030273;28;20083;-63
2023/01/29 10:07:02;;;;;;;6.85;3.88;;;;;;;10.63;57.76;99918.16;5029793;28;20052;-63
2023/01/29 10:09:47;;;;;;;6.28;4.18;;;;;;;11.35;54.85;99914.34;5009669;28;22656;-63
2023/01/29 10:12:31;;;;;;;7.07;3.13;;;;;;;11.36;50.93;99914.16;5004844;28;20026;-63
2023/01/29 10:15:19;;;;;;;2.83;2.50;;;;;;;12.20;50.15;99916.78;5014534;28;20029;-63
2023/01/29 10:17:47;;;;;;;3.22;2.45;;;;;;;10.84;50.60;99908.56;5027721;28;20070;-63
2023/01/29 10:20:18;;;;;;;4.18;2.70;;;;;;;9.05;53.48;99927.63;5030019;28;20415;-63
2023/01/29 10:22:59;;;;;;;4.10;2.83;;;;;;;7.20;56.72;99921.72;5029455;28;20507;-63
2023/01/29 10:25:24;;;;;;;3.55;2.58;;;;;;;6.40;59.53;99912.63;5021477;28;20033;-63
2023/01/29 10:27:53;;;;;;;4.63;3.15;;;;;;;5.47;64.16;99931.22;5027870;28;20694;-63
2023/01/29 10:30:27;;;;;;;5.27;3.20;;;;;;;5.81;65.00;99927.22;5020540;28;20025;-64
2023/01/29 10:32:56;;;;;;;5.05;3.83;;;;;;;5.82;65.46;99940.50;5014661;28;20036;-63
2023/01/29 10:35:39;;;;;;;4.80;2.90;;;;;;;6.53;64.89;99931.09;5011976;28;20021;-61
2023/01/29 10:38:34;;;;;;;4.75;3.08;;;;;;;6.93;61.69;99936.06;5035398;28;20033;-61
2023/01/29 10:44:05;;;;;;;4.30;2.97;;;;;;;7.69;58.70;99922.09;5033192;28;20036;-63
2023/01/29 10:46:46;;;;;;;3.25;2.30;;;;;;;6.95;59.82;99925.16;5018636;28;20489;-62
2023/01/29 10:49:30;;;;;;;5.32;3.20;;;;;;;7.61;59.15;99926.59;5009738;28;20120;-61
2023/01/29 10:52:07;;;;;;;3.20;2.58;;;;;;;6.90;58.67;99922.09;5012700;28;20037;-61
2023/01/29 10:54:39;;;;;;;4.18;3.20;;;;;;;6.93;60.91;99932.53;5021818;28;20700;-61
2023/01/29 10:57:23;;;;;;;7.53;3.40;;;;;;;6.88;60.84;99930.28;5006819;28;20029;-61
2023/01/29 10:59:58;;;;;;;7.35;3.83;;;;;;;6.34;62.72;99923.94;5002938;28;20038;-61
2023/01/29 11:02:23;;;;;;;5.03;3.78;;;;;;;5.87;64.85;99932.88;5018895;28;20036;-61
2023/01/29 11:04:49;;;;;;;7.68;3.90;;;;;;;6.01;66.32;99920.84;5024971;28;20025;-61
2023/01/29 11:07:18;;;;;;;5.32;3.88;;;;;;;5.96;65.88;99920.41;5015046;28;20078;-62
2023/01/29 11:09:53;;;;;;;6.47;4.25;;;;;;;5.81;66.33;99920.00;5013188;28;20254;-61
2023/01/29 11:12:26;;;;;;;7.10;4.05;;;;;;;5.96;67.29;99916.91;5026706;28;20036;-61
2023/01/29 11:15:04;;;;;;;7.95;4.47;;;;;;;6.00;68.06;99899.47;5034200;28;20033;-61
2023/01/29 11:17:29;;;;;;;6.70;3.88;;;;;;;5.75;68.61;99900.94;5005787;28;20108;-61
2023/01/29 11:19:55;;;;;;;5.65;3.92;;;;;;;5.52;68.53;99892.38;5025561;28;20084;-63
2023/01/29 11:22:21;;;;;;;6.88;4.30;;;;;;;5.10;70.70;99885.50;5019813;28;20381;-60
2023/01/29 11:25:19;;;;;;;8.82;4.68;;;;;;;4.58;74.45;99885.75;5010919;28;20044;-62
2023/01/29 11:27:49;;;;;;;7.47;4.50;;;;;;;4.01;86.00;99881.03;5012436;28;20055;-62
2023/01/29 11:30:23;;;;;;;12.23;5.30;;;;;;;3.94;93.42;99876.25;5011351;28;20056;-62
2023/01/29 11:32:54;;;;;;;14.65;7.30;;;;;;;4.14;90.89;99890.56;5007910;28;20268;-62
2023/01/29 11:35:22;;;;;;;15.23;6.55;;;;;;;4.54;87.20;99870.94;5026030;28;20013;-62
2023/01/29 11:37:49;;;;;;;13.70;6.20;;;;;;;4.99;83.12;99867.72;5018948;28;20028;-62
2023/01/29 11:40:17;;;;;;;8.25;4.95;;;;;;;5.74;83.35;99873.25;5028687;28;20404;-62
2023/01/29 11:42:44;;;;;;;9.20;5.30;;;;;;;6.32;72.21;99864.97;5013063;28;20029;-62
2023/01/29 11:45:26;;;;;;;7.82;5.13;;;;;;;5.39;74.63;99864.00;5024031;28;20284;-62
2023/01/29 11:47:59;;;;;;;8.07;5.05;;;;;;;5.02;77.53;99856.69;5015880;28;20045;-63
2023/01/29 11:50:28;;;;;;;7.25;4.22;;;;;;;5.00;80.88;99850.66;5015177;28;20097;-64
2023/01/29 11:52:54;;;;;;;7.60;4.97;;;;;;;5.59;80.46;99847.88;5038783;28;20025;-64
2023/01/29 11:55:29;;;;;;;7.20;4.53;;;;;;;6.11;74.08;99837.53;5027245;28;20055;-64
2023/01/29 11:58:17;;;;;;;8.15;4.07;;;;;;;6.44;73.58;99837.88;5024357;28;20021;-64
2023/01/29 12:00:49;;;;;;;7.97;4.97;;;;;;;5.78;73.41;99836.22;5032795;28;20029;-64
2023/01/29 12:03:21;;;;;;;10.52;4.88;;;;;;;5.74;75.02;99832.97;5009164;28;20038;-64
2023/01/29 12:06:02;;;;;;;6.65;4.82;;;;;;;5.19;77.16;99833.69;5028078;28;20040;-64
2023/01/29 12:08:34;;;;;;;8.95;5.10;;;;;;;5.67;75.17;99838.09;5003137;28;20021;-64
2023/01/29 12:11:27;;;;;;;6.85;5.10;;;;;;;6.44;72.46;99827.97;5015832;28;20022;-64
2023/01/29 12:13:54;;;;;;;7.47;4.47;;;;;;;6.75;67.72;99820.38;5017587;28;20029;-64
2023/01/29 12:16:36;;;;;;;8.90;4.53;;;;;;;6.62;68.18;99811.00;5016058;28;20044;-64
2023/01/29 12:19:30;;;;;;;6.70;4.47;;;;;;;7.04;68.43;99813.91;5015970;28;20060;-64